Time;durP1;ratioP1;P1;durP2;ratioP2;P2;SDS_P1;SDS_P2;PMS_P1;PMS_P2;Temp;Humidity;BMP_temperature;BMP_pressure;BME280_temperature;BME280_humidity;BME280_pressure;Samples;Min_cycle;Max_cycle;Signal;HPM_P1;HPM_P2
2024/01/28 00:00:22;;;;;;;13.30;3.30;;;;;;;;;;5073989;28;20017;-68
2024/01/28 00:02:48;;;;;;;8.30;2.75;;;;;;;;;;5073935;28;20028;-67
2024/01/28 00:05:13;;;;;;;11.65;2.55;;;;;;;;;;5073950;28;20043;-68
2024/01/28 00:07:39;;;;;;;12.45;2.72;;;;;;;;;;5073810;28;20047;-68
2024/01/28 00:10:06;;;;;;;15.13;3.53;;;;;;;;;;5073609;28;20037;-68
2024/01/28 00:12:31;;;;;;;16.25;4.30;;;;;;;;;;5073812;28;20027;-68
2024/01/28 00:14:57;;;;;;;10.93;2.78;;;;;;;;;;5073867;28;20377;-68
2024/01/28 00:17:23;;;;;;;10.93;2.33;;;;;;;;;;5073734;28;20572;-68
2024/01/28 00:19:48;;;;;;;13.20;2.20;;;;;;;;;;5073567;28;20444;-68
2024/01/28 00:22:13;;;;;;;9.38;2.20;;;;;;;;;;5073225;28;20027;-68
2024/01/28 00:24:39;;;;;;;9.88;2.40;;;;;;;;;;5073557;28;20028;-68
2024/01/28 00:27:04;;;;;;;15.75;2.85;;;;;;;;;;5073395;28;20086;-68
2024/01/28 00:29:29;;;;;;;11.30;2.22;;;;;;;;;;5073431;28;20426;-68
2024/01/28 00:31:56;;;;;;;10.45;2.55;;;;;;;;;;5073318;28;20036;-68
2024/01/28 00:34:21;;;;;;;13.35;3.08;;;;;;;;;;5073241;28;20028;-68
2024/01/28 00:36:47;;;;;;;9.98;2.53;;;;;;;;;;5073316;28;20085;-68
2024/01/28 00:39:13;;;;;;;11.50;3.08;;;;;;;;;;5073842;28;20024;-68
2024/01/28 00:41:39;;;;;;;11.00;2.95;;;;;;;;;;5072909;28;20498;-68
2024/01/28 00:44:05;;;;;;;15.50;3.83;;;;;;;;;;5073634;28;20029;-68
2024/01/28 00:46:32;;;;;;;10.40;3.15;;;;;;;;;;5073481;28;20032;-68
2024/01/28 00:48:57;;;;;;;7.55;2.95;;;;;;;;;;5073628;28;20351;-68
2024/01/28 00:51:23;;;;;;;12.43;2.88;;;;;;;;;;5073234;28;20025;-68
2024/01/28 00:53:48;;;;;;;11.27;3.25;;;;;;;;;;5073171;28;20567;-68
2024/01/28 00:56:16;;;;;;;10.02;2.40;;;;;;;;;;5073427;28;20120;-68
2024/01/28 00:58:42;;;;;;;10.98;2.50;;;;;;;;;;5073452;28;20024;-68
2024/01/28 01:01:08;;;;;;;13.98;3.72;;;;;;;;;;5073358;28;20484;-68
2024/01/28 01:03:33;;;;;;;14.25;3.85;;;;;;;;;;5073294;28;20098;-68
2024/01/28 01:05:59;;;;;;;11.10;2.67;;;;;;;;;;5072917;28;20475;-68
2024/01/28 01:08:24;;;;;;;15.07;3.08;;;;;;;;;;5073185;28;20029;-68
2024/01/28 01:10:50;;;;;;;19.55;3.47;;;;;;;;;;5073095;28;20054;-68
2024/01/28 01:13:15;;;;;;;11.45;2.58;;;;;;;;;;5073093;28;20031;-68
2024/01/28 01:15:41;;;;;;;10.70;2.22;;;;;;;;;;5072921;28;20078;-68
2024/01/28 01:18:07;;;;;;;14.95;2.78;;;;;;;;;;5054919;28;20345;-68
2024/01/28 01:20:33;;;;;;;17.10;3.08;;;;;;;;;;5072776;28;20058;-67
2024/01/28 01:22:58;;;;;;;9.63;2.58;;;;;;;;;;5072970;28;20357;-68
2024/01/28 01:25:24;;;;;;;14.10;3.00;;;;;;;;;;5072784;28;20115;-68
2024/01/28 01:27:52;;;;;;;11.75;2.88;;;;;;;;;;5072902;28;20021;-68
2024/01/28 01:30:18;;;;;;;13.27;3.03;;;;;;;;;;5072605;28;20024;-68
2024/01/28 01:32:43;;;;;;;16.23;3.28;;;;;;;;;;5072835;28;20021;-68
2024/01/28 01:35:11;;;;;;;15.85;3.25;;;;;;;;;;5054063;28;20040;-68
2024/01/28 01:37:36;;;;;;;11.85;3.33;;;;;;;;;;5072300;28;20025;-68
2024/01/28 01:40:05;;;;;;;13.50;3.03;;;;;;;;;;5072239;28;20020;-68
2024/01/28 01:42:31;;;;;;;10.02;2.90;;;;;;;;;;5071932;28;20442;-68
2024/01/28 01:44:56;;;;;;;9.77;3.65;;;;;;;;;;5071983;28;20029;-68
2024/01/28 01:47:22;;;;;;;20.95;3.72;;;;;;;;;;5072144;28;20058;-68
2024/01/28 01:49:48;;;;;;;10.30;3.15;;;;;;;;;;5071949;28;20032;-68
2024/01/28 01:52:16;;;;;;;13.77;2.95;;;;;;;;;;5072120;28;20021;-68
2024/01/28 01:54:43;;;;;;;13.73;3.03;;;;;;;;;;5070926;28;20059;-68
2024/01/28 01:57:10;;;;;;;11.25;3.10;;;;;;;;;;5072041;28;20482;-68
2024/01/28 01:59:37;;;;;;;14.18;3.00;;;;;;;;;;5072109;28;20086;-68
2024/01/28 02:02:05;;;;;;;14.27;3.20;;;;;;;;;;5072063;28;20078;-68
2024/01/28 02:04:31;;;;;;;9.10;2.58;;;;;;;;;;5071778;28;20028;-68
2024/01/28 02:06:56;;;;;;;11.07;2.83;;;;;;;;;;5071832;28;20108;-68
2024/01/28 02:09:21;;;;;;;12.30;3.15;;;;;;;;;;5072000;28;20104;-68
2024/01/28 02:11:47;;;;;;;11.98;2.72;;;;;;;;;;5072052;28;20052;-68
2024/01/28 02:14:23;;;;;;;11.27;2.50;;;;;;;;;;5071957;28;20048;-68
2024/01/28 02:16:48;;;;;;;13.73;2.45;;;;;;;;;;5070136;28;20025;-68
2024/01/28 02:19:14;;;;;;;10.30;3.05;;;;;;;;;;5071648;28;20021;-68
2024/01/28 02:21:40;;;;;;;14.40;3.05;;;;;;;;;;5071859;28;20379;-68
2024/01/28 02:24:05;;;;;;;11.50;3.00;;;;;;;;;;5071805;28;20070;-68
2024/01/28 02:26:31;;;;;;;9.55;2.30;;;;;;;;;;5071760;28;20013;-68
2024/01/28 02:28:56;;;;;;;6.13;2.70;;;;;;;;;;5071791;28;20071;-68
2024/01/28 02:31:22;;;;;;;13.82;2.92;;;;;;;;;;5071725;28;20032;-68
2024/01/28 02:33:47;;;;;;;9.77;2.50;;;;;;;;;;5071554;28;20105;-68
2024/01/28 02:36:12;;;;;;;10.07;2.53;;;;;;;;;;5056742;28;20027;-68
2024/01/28 02:38:38;;;;;;;10.93;2.55;;;;;;;;;;5072202;28;20029;-68
2024/01/28 02:41:03;;;;;;;12.35;2.88;;;;;;;;;;5072041;28;20121;-68
2024/01/28 02:43:29;;;;;;;18.35;3.10;;;;;;;;;;5071968;28;20025;-68
2024/01/28 02:45:54;;;;;;;10.82;2.67;;;;;;;;;;5071839;28;20059;-68
2024/01/28 02:48:19;;;;;;;13.95;3.40;;;;;;;;;;5071889;28;20035;-68
2024/01/28 02:50:45;;;;;;;15.07;2.92;;;;;;;;;;5071976;28;20032;-68
2024/01/28 02:53:10;;;;;;;5.78;2.47;;;;;;;;;;5071984;28;20029;-68
2024/01/28 02:55:36;;;;;;;10.52;2.95;;;;;;;;;;5071692;28;20040;-68
2024/01/28 02:58:02;;;;;;;11.82;2.72;;;;;;;;;;5071940;28;20027;-68
2024/01/28 03:00:29;;;;;;;13.50;3.22;;;;;;;;;;5071969;28;20036;-68
2024/01/28 03:02:54;;;;;;;16.42;3.10;;;;;;;;;;5071776;28;20021;-68
2024/01/28 03:05:20;;;;;;;14.15;3.22;;;;;;;;;;5073588;28;20467;-68
2024/01/28 03:07:45;;;;;;;9.80;2.90;;;;;;;;;;5075734;28;20460;-68
2024/01/28 03:10:11;;;;;;;12.63;2.83;;;;;;;;;;5075661;28;20028;-68
2024/01/28 03:12:36;;;;;;;11.07;2.88;;;;;;;;;;5075662;28;20028;-68
2024/01/28 03:15:03;;;;;;;13.30;3.72;;;;;;;;;;5075494;28;20028;-68
2024/01/28 03:17:29;;;;;;;8.82;2.63;;;;;;;;;;5075379;28;20393;-68
2024/01/28 03:19:54;;;;;;;11.55;2.92;;;;;;;;;;5075424;28;20025;-68
2024/01/28 03:22:20;;;;;;;9.30;3.10;;;;;;;;;;5075385;28;20033;-68
2024/01/28 03:24:47;;;;;;;15.23;3.65;;;;;;;;;;5075204;28;20070;-68
2024/01/28 03:27:13;;;;;;;11.57;3.05;;;;;;;;;;5075252;28;20024;-68
2024/01/28 03:29:38;;;;;;;13.75;3.50;;;;;;;;;;5075411;28;20025;-68
2024/01/28 03:32:04;;;;;;;14.02;3.25;;;;;;;;;;5074951;28;20029;-68
2024/01/28 03:34:30;;;;;;;9.40;2.80;;;;;;;;;;5075185;28;20051;-68
2024/01/28 03:36:55;;;;;;;13.15;2.85;;;;;;;;;;5075147;28;20017;-68
2024/01/28 03:39:21;;;;;;;9.30;2.72;;;;;;;;;;5075015;28;20044;-68
2024/01/28 03:41:46;;;;;;;12.18;2.88;;;;;;;;;;5074930;28;20477;-68
2024/01/28 03:44:15;;;;;;;17.67;3.53;;;;;;;;;;5074955;28;20037;-68
2024/01/28 03:46:40;;;;;;;9.30;2.85;;;;;;;;;;5074508;28;20044;-68
2024/01/28 03:49:06;;;;;;;14.40;2.78;;;;;;;;;;5075082;28;20024;-68
2024/01/28 03:51:31;;;;;;;8.88;3.03;;;;;;;;;;5074714;28;20029;-68
2024/01/28 03:53:57;;;;;;;7.47;2.40;;;;;;;;;;5074609;28;20067;-68
2024/01/28 03:56:24;;;;;;;10.52;2.92;;;;;;;;;;5074795;28;20107;-68
2024/01/28 03:58:49;;;;;;;8.57;3.10;;;;;;;;;;5074816;28;20108;-68
2024/01/28 04:01:14;;;;;;;9.82;2.72;;;;;;;;;;5074409;28;20021;-68
2024/01/28 04:03:40;;;;;;;11.23;2.80;;;;;;;;;;5074720;28;20021;-68
2024/01/28 04:06:05;;;;;;;10.02;2.78;;;;;;;;;;5074509;28;20116;-68
2024/01/28 04:08:31;;;;;;;10.63;3.03;;;;;;;;;;5074684;28;20383;-68
2024/01/28 04:10:56;;;;;;;10.15;3.00;;;;;;;;;;5074432;28;20483;-68
2024/01/28 04:13:21;;;;;;;12.40;3.13;;;;;;;;;;5074565;28;20027;-68
2024/01/28 04:15:47;;;;;;;17.80;3.35;;;;;;;;;;5073627;28;20025;-68
2024/01/28 04:18:12;;;;;;;7.57;2.42;;;;;;;;;;5073736;28;20106;-68
2024/01/28 04:20:38;;;;;;;8.02;3.42;;;;;;;;;;5074270;28;20106;-68
2024/01/28 04:23:03;;;;;;;14.68;3.58;;;;;;;;;;5074030;28;20033;-68
2024/01/28 04:25:29;;;;;;;10.43;2.80;;;;;;;;;;5074136;28;20028;-68
2024/01/28 04:27:54;;;;;;;13.98;3.15;;;;;;;;;;5074170;28;20025;-68
2024/01/28 04:30:19;;;;;;;12.05;4.55;;;;;;;;;;5073871;28;20069;-68
2024/01/28 04:32:45;;;;;;;12.48;3.80;;;;;;;;;;5074115;28;20028;-68
2024/01/28 04:35:12;;;;;;;14.15;3.95;;;;;;;;;;5073830;28;20048;-68
2024/01/28 04:37:38;;;;;;;11.90;3.67;;;;;;;;;;5074024;28;20129;-68
2024/01/28 04:40:04;;;;;;;14.98;4.00;;;;;;;;;;5073703;28;20029;-68
2024/01/28 04:42:30;;;;;;;10.02;3.40;;;;;;;;;;5073661;28;20119;-68
2024/01/28 04:44:56;;;;;;;9.80;3.58;;;;;;;;;;5073549;28;20456;-68
2024/01/28 04:47:21;;;;;;;8.85;4.38;;;;;;;;;;5073827;28;20024;-68
2024/01/28 04:49:47;;;;;;;10.25;3.58;;;;;;;;;;5073787;28;20107;-68
2024/01/28 04:52:13;;;;;;;12.52;3.80;;;;;;;;;;5073570;28;20075;-68
2024/01/28 04:54:38;;;;;;;13.57;4.10;;;;;;;;;;5073247;28;20457;-68
2024/01/28 04:57:04;;;;;;;16.30;3.88;;;;;;;;;;5073648;28;20059;-68
2024/01/28 04:59:30;;;;;;;10.20;3.10;;;;;;;;;;5073309;28;20028;-68
2024/01/28 05:01:55;;;;;;;13.98;3.13;;;;;;;;;;5073507;28;20025;-68
2024/01/28 05:04:21;;;;;;;10.23;3.38;;;;;;;;;;5073460;28;20021;-68
2024/01/28 05:06:47;;;;;;;14.45;3.45;;;;;;;;;;5073363;28;20564;-68
2024/01/28 05:09:13;;;;;;;11.93;3.10;;;;;;;;;;5073432;28;20028;-68
2024/01/28 05:11:39;;;;;;;8.43;3.17;;;;;;;;;;5073267;28;20031;-68
2024/01/28 05:14:04;;;;;;;14.00;3.03;;;;;;;;;;5064511;28;20029;-68
2024/01/28 05:16:30;;;;;;;13.07;3.13;;;;;;;;;;5053205;28;20017;-68
2024/01/28 05:18:56;;;;;;;10.68;2.88;;;;;;;;;;5053230;28;20039;-68
2024/01/28 05:21:23;;;;;;;10.70;3.10;;;;;;;;;;5053193;28;20027;-68
2024/01/28 05:23:49;;;;;;;8.77;3.42;;;;;;;;;;5053156;28;20071;-68
2024/01/28 05:26:14;;;;;;;13.15;3.53;;;;;;;;;;5051740;28;20104;-68
2024/01/28 05:28:40;;;;;;;16.48;4.82;;;;;;;;;;5052607;28;20104;-68
2024/01/28 05:31:07;;;;;;;14.18;3.83;;;;;;;;;;5052895;28;20032;-68
2024/01/28 05:33:37;;;;;;;7.38;3.53;;;;;;;;;;5052967;28;20116;-68
2024/01/28 05:36:22;;;;;;;11.98;4.30;;;;;;;;;;5052789;28;20491;-68
2024/01/28 05:38:48;;;;;;;15.05;4.28;;;;;;;;;;5052771;28;20587;-68
2024/01/28 05:41:14;;;;;;;10.88;3.80;;;;;;;;;;5070263;28;20107;-68
2024/01/28 05:43:39;;;;;;;16.95;4.20;;;;;;;;;;5072706;28;20028;-69
2024/01/28 05:46:05;;;;;;;15.07;3.72;;;;;;;;;;5072428;28;20025;-68
2024/01/28 05:48:31;;;;;;;9.45;4.13;;;;;;;;;;5072754;28;20031;-69
2024/01/28 05:50:56;;;;;;;11.57;4.05;;;;;;;;;;5072325;28;20032;-68
2024/01/28 05:53:24;;;;;;;10.98;3.85;;;;;;;;;;5072483;28;20361;-69
2024/01/28 05:55:50;;;;;;;14.65;3.80;;;;;;;;;;5072202;28;20047;-68
2024/01/28 05:58:16;;;;;;;10.02;3.72;;;;;;;;;;5072691;28;20380;-68
2024/01/28 06:00:41;;;;;;;16.02;4.03;;;;;;;;;;5072516;28;20028;-68
2024/01/28 06:03:07;;;;;;;14.45;3.75;;;;;;;;;;5072601;28;20021;-68
2024/01/28 06:05:32;;;;;;;14.40;3.88;;;;;;;;;;5072304;28;20016;-68
2024/01/28 06:07:57;;;;;;;15.15;4.55;;;;;;;;;;5072455;28;20031;-69
2024/01/28 06:10:23;;;;;;;10.57;3.30;;;;;;;;;;5071994;28;20035;-68
2024/01/28 06:12:48;;;;;;;12.98;5.13;;;;;;;;;;5072443;28;20035;-68
2024/01/28 06:15:14;;;;;;;11.65;3.58;;;;;;;;;;5072421;28;20028;-68
2024/01/28 06:17:40;;;;;;;17.67;4.18;;;;;;;;;;5072424;28;20304;-68
2024/01/28 06:20:07;;;;;;;8.48;3.92;;;;;;;;;;5072404;28;20028;-69
2024/01/28 06:22:32;;;;;;;10.95;4.25;;;;;;;;;;5072330;28;20495;-69
2024/01/28 06:24:59;;;;;;;13.27;4.28;;;;;;;;;;5072174;28;20028;-69
2024/01/28 06:27:25;;;;;;;10.05;4.32;;;;;;;;;;5072273;28;20495;-69
2024/01/28 06:29:50;;;;;;;13.02;3.95;;;;;;;;;;5072272;28;20143;-68
2024/01/28 06:32:17;;;;;;;9.80;3.92;;;;;;;;;;5072272;28;20064;-68
2024/01/28 06:34:43;;;;;;;19.30;4.70;;;;;;;;;;5072116;28;20024;-69
2024/01/28 06:37:08;;;;;;;10.18;3.28;;;;;;;;;;5071971;28;20024;-69
2024/01/28 06:39:34;;;;;;;11.20;4.60;;;;;;;;;;5072329;28;20031;-68
2024/01/28 06:41:59;;;;;;;8.18;4.00;;;;;;;;;;5075797;28;20078;-68
2024/01/28 06:44:24;;;;;;;12.70;4.05;;;;;;;;;;5075825;28;20112;-68
2024/01/28 06:46:50;;;;;;;15.40;4.60;;;;;;;;;;5075695;28;20025;-68
2024/01/28 06:49:16;;;;;;;13.38;4.30;;;;;;;;;;5075869;28;20480;-68
2024/01/28 06:51:44;;;;;;;10.60;4.05;;;;;;;;;;5075834;28;20483;-68
2024/01/28 06:54:10;;;;;;;15.57;4.68;;;;;;;;;;5075453;28;20044;-68
2024/01/28 06:56:36;;;;;;;13.82;4.88;;;;;;;;;;5075587;28;20426;-69
2024/01/28 06:59:01;;;;;;;17.27;5.80;;;;;;;;;;5075595;28;20028;-69
2024/01/28 07:01:27;;;;;;;9.85;4.90;;;;;;;;;;5075538;28;20029;-68
2024/01/28 07:03:52;;;;;;;12.10;4.35;;;;;;;;;;5075617;28;20025;-68
2024/01/28 07:06:18;;;;;;;14.57;4.63;;;;;;;;;;5075428;28;20476;-68
2024/01/28 07:08:43;;;;;;;12.32;4.40;;;;;;;;;;5075189;28;20029;-68
2024/01/28 07:11:09;;;;;;;22.23;4.30;;;;;;;;;;5075384;28;20021;-69
2024/01/28 07:13:34;;;;;;;12.63;4.53;;;;;;;;;;5075459;28;20025;-68
2024/01/28 07:15:59;;;;;;;12.38;4.65;;;;;;;;;;5075364;28;20021;-69
2024/01/28 07:18:25;;;;;;;14.77;5.10;;;;;;;;;;5075355;28;20162;-68
2024/01/28 07:20:50;;;;;;;14.40;4.88;;;;;;;;;;5075266;28;20017;-69
2024/01/28 07:23:16;;;;;;;9.50;3.78;;;;;;;;;;5057133;28;20024;-69
2024/01/28 07:25:41;;;;;;;11.10;4.40;;;;;;;;;;5075111;28;20025;-68
2024/01/28 07:28:06;;;;;;;14.80;5.57;;;;;;;;;;5075258;28;20078;-69
2024/01/28 07:30:32;;;;;;;12.10;4.50;;;;;;;;;;5074982;28;20025;-69
2024/01/28 07:32:58;;;;;;;14.18;5.32;;;;;;;;;;5074961;28;20028;-68
2024/01/28 07:35:23;;;;;;;17.20;5.80;;;;;;;;;;5074922;28;20020;-68
2024/01/28 07:37:49;;;;;;;13.65;4.90;;;;;;;;;;5074920;28;20063;-68
2024/01/28 07:40:14;;;;;;;15.52;5.20;;;;;;;;;;5074975;28;20064;-68
2024/01/28 07:42:40;;;;;;;15.85;5.47;;;;;;;;;;5074832;28;20028;-68
2024/01/28 07:45:06;;;;;;;14.13;4.70;;;;;;;;;;5074825;28;20033;-68
2024/01/28 07:47:31;;;;;;;16.58;5.53;;;;;;;;;;5074905;28;20021;-68
2024/01/28 07:49:56;;;;;;;18.08;5.63;;;;;;;;;;5074683;28;20036;-68
2024/01/28 07:52:22;;;;;;;11.73;4.93;;;;;;;;;;5074476;28;20025;-68
2024/01/28 07:54:47;;;;;;;10.93;5.10;;;;;;;;;;5074575;28;20055;-68
2024/01/28 07:57:13;;;;;;;9.43;4.40;;;;;;;;;;5074746;28;20027;-68
2024/01/28 07:59:38;;;;;;;11.77;4.97;;;;;;;;;;5074730;28;20425;-68
2024/01/28 08:02:04;;;;;;;12.88;4.50;;;;;;;;;;5074663;28;20475;-68
2024/01/28 08:04:30;;;;;;;9.25;3.95;;;;;;;;;;5074584;28;20055;-68
2024/01/28 08:06:55;;;;;;;18.10;4.63;;;;;;;;;;5074440;28;20086;-68
2024/01/28 08:09:20;;;;;;;16.73;4.78;;;;;;;;;;5074392;28;20017;-69
2024/01/28 08:11:46;;;;;;;16.52;4.78;;;;;;;;;;5074532;28;20029;-69
2024/01/28 08:14:11;;;;;;;13.75;4.85;;;;;;;;;;5066001;28;20100;-68
2024/01/28 08:16:37;;;;;;;11.50;4.97;;;;;;;;;;5054533;28;20032;-68
2024/01/28 08:19:04;;;;;;;14.27;4.93;;;;;;;;;;5054618;28;20032;-68
2024/01/28 08:21:31;;;;;;;10.65;4.32;;;;;;;;;;5053965;28;20025;-68
2024/01/28 08:23:57;;;;;;;13.88;4.13;;;;;;;;;;5054119;28;20017;-69
2024/01/28 08:26:22;;;;;;;10.95;3.75;;;;;;;;;;5053103;28;20021;-69
2024/01/28 08:28:48;;;;;;;11.52;4.50;;;;;;;;;;5054272;28;20051;-69
2024/01/28 08:31:14;;;;;;;16.42;4.63;;;;;;;;;;5054113;28;20021;-69
2024/01/28 08:33:39;;;;;;;13.88;4.53;;;;;;;;;;5071039;28;20032;-68
2024/01/28 08:36:05;;;;;;;12.52;4.80;;;;;;;;;;5073810;28;20024;-68
2024/01/28 08:38:32;;;;;;;11.05;4.35;;;;;;;;;;5073930;28;20025;-68
2024/01/28 08:40:57;;;;;;;16.23;5.25;;;;;;;;;;5073865;28;20375;-68
2024/01/28 08:43:22;;;;;;;14.88;5.50;;;;;;;;;;5073707;28;20025;-69
2024/01/28 08:45:48;;;;;;;9.25;4.57;;;;;;;;;;5073833;28;20393;-68
2024/01/28 08:48:13;;;;;;;15.38;5.30;;;;;;;;;;5073857;28;20020;-68
2024/01/28 08:50:39;;;;;;;14.10;5.40;;;;;;;;;;5073385;28;20039;-68
2024/01/28 08:53:05;;;;;;;13.45;5.47;;;;;;;;;;5073782;28;20024;-68
2024/01/28 08:55:30;;;;;;;14.82;5.22;;;;;;;;;;5073416;28;20119;-68
2024/01/28 08:57:56;;;;;;;10.50;5.20;;;;;;;;;;5073601;28;20048;-68
2024/01/28 09:00:21;;;;;;;14.07;6.18;;;;;;;;;;5072137;28;20471;-68
2024/01/28 09:02:47;;;;;;;14.75;4.90;;;;;;;;;;5068146;28;20109;-68
2024/01/28 09:05:12;;;;;;;13.38;5.20;;;;;;;;;;5073188;28;20037;-68
2024/01/28 09:07:40;;;;;;;16.80;5.25;;;;;;;;;;5072530;28;20056;-68
2024/01/28 09:10:06;;;;;;;14.10;5.20;;;;;;;;;;5066572;28;20024;-68
2024/01/28 09:12:33;;;;;;;14.43;4.70;;;;;;;;;;5069514;28;20447;-69
2024/01/28 09:14:58;;;;;;;12.30;4.90;;;;;;;;;;5072039;28;20028;-68
2024/01/28 09:17:24;;;;;;;14.45;4.90;;;;;;;;;;5070953;28;20027;-68
2024/01/28 09:19:49;;;;;;;12.35;4.85;;;;;;;;;;5072101;28;20426;-68
2024/01/28 09:22:14;;;;;;;11.32;4.65;;;;;;;;;;5076305;28;20048;-68
2024/01/28 09:24:40;;;;;;;15.82;5.38;;;;;;;;;;5084444;28;20017;-68
2024/01/28 09:27:06;;;;;;;15.05;4.93;;;;;;;;;;5062302;28;20077;-68
2024/01/28 09:29:31;;;;;;;15.18;5.50;;;;;;;;;;5052881;28;20082;-68
2024/01/28 09:31:58;;;;;;;16.73;5.65;;;;;;;;;;5052782;28;20021;-68
2024/01/28 09:34:24;;;;;;;13.05;4.50;;;;;;;;;;5052554;28;20061;-68
2024/01/28 09:36:49;;;;;;;14.63;5.20;;;;;;;;;;5052817;28;20110;-68
2024/01/28 09:39:15;;;;;;;11.43;4.70;;;;;;;;;;5053737;28;20032;-68
2024/01/28 09:42:04;;;;;;;18.80;4.90;;;;;;;;;;5072658;28;20035;-68
2024/01/28 09:44:29;;;;;;;13.77;4.93;;;;;;;;;;5072606;28;20028;-68
2024/01/28 09:46:55;;;;;;;13.05;5.00;;;;;;;;;;5072599;28;20113;-69
2024/01/28 09:49:22;;;;;;;16.63;4.45;;;;;;;;;;5072330;28;20048;-68
2024/01/28 09:51:47;;;;;;;19.90;5.00;;;;;;;;;;5072630;28;20070;-68
2024/01/28 09:54:13;;;;;;;15.18;5.18;;;;;;;;;;5072290;28;20398;-68
2024/01/28 09:56:41;;;;;;;16.98;4.60;;;;;;;;;;5072357;28;20024;-68
2024/01/28 09:59:08;;;;;;;14.40;5.43;;;;;;;;;;5072138;28;20035;-68
2024/01/28 10:01:33;;;;;;;13.65;4.85;;;;;;;;;;5052478;28;20107;-68
2024/01/28 10:04:00;;;;;;;14.30;4.93;;;;;;;;;;5053434;28;20067;-68
2024/01/28 10:06:26;;;;;;;13.80;4.57;;;;;;;;;;5072383;28;20024;-68
2024/01/28 10:08:52;;;;;;;13.85;5.18;;;;;;;;;;5072322;28;20179;-68
2024/01/28 10:11:18;;;;;;;13.07;4.38;;;;;;;;;;5072303;28;20119;-68
2024/01/28 10:13:43;;;;;;;14.07;5.90;;;;;;;;;;5071720;28;20082;-68
2024/01/28 10:16:09;;;;;;;16.63;5.43;;;;;;;;;;5071704;28;20040;-68
2024/01/28 10:18:35;;;;;;;11.85;4.50;;;;;;;;;;5071979;28;20029;-68
2024/01/28 10:21:00;;;;;;;17.17;6.55;;;;;;;;;;5072091;28;20031;-68
2024/01/28 10:23:26;;;;;;;15.13;4.90;;;;;;;;;;5071956;28;20027;-68
2024/01/28 10:25:55;;;;;;;15.93;6.40;;;;;;;;;;5071924;28;20495;-68
2024/01/28 10:28:21;;;;;;;24.83;6.55;;;;;;;;;;5072084;28;20107;-68
2024/01/28 10:30:50;;;;;;;14.88;4.78;;;;;;;;;;5053921;28;20107;-68
2024/01/28 10:33:15;;;;;;;11.30;4.38;;;;;;;;;;5071989;28;20400;-68
2024/01/28 10:35:41;;;;;;;16.52;5.47;;;;;;;;;;5071977;28;20051;-68
2024/01/28 10:38:14;;;;;;;22.92;6.18;;;;;;;;;;5072018;28;20111;-68
2024/01/28 10:40:43;;;;;;;22.48;5.43;;;;;;;;;;5072075;28;20025;-68
2024/01/28 10:43:11;;;;;;;19.13;6.07;;;;;;;;;;5071502;28;20389;-69
2024/01/28 10:45:42;;;;;;;21.38;5.93;;;;;;;;;;5071458;28;20387;-69
2024/01/28 10:48:16;;;;;;;23.02;6.90;;;;;;;;;;5071812;28;20039;-68
2024/01/28 10:50:41;;;;;;;25.50;7.40;;;;;;;;;;5071821;28;20040;-68
2024/01/28 10:53:09;;;;;;;18.45;6.78;;;;;;;;;;5071678;28;20029;-68
2024/01/28 10:55:35;;;;;;;24.55;6.85;;;;;;;;;;5071478;28;20144;-68
2024/01/28 10:58:04;;;;;;;17.63;6.07;;;;;;;;;;5071783;28;20172;-68
2024/01/28 11:00:30;;;;;;;23.67;7.47;;;;;;;;;;5071612;28;20024;-68
2024/01/28 11:02:58;;;;;;;17.15;6.32;;;;;;;;;;5071921;28;20074;-69
2024/01/28 11:05:25;;;;;;;22.08;7.22;;;;;;;;;;5071566;28;20025;-68
2024/01/28 11:07:53;;;;;;;22.70;6.90;;;;;;;;;;5071763;28;20594;-68
2024/01/28 11:10:21;;;;;;;21.38;6.45;;;;;;;;;;5071754;28;20029;-68
2024/01/28 11:12:47;;;;;;;20.38;6.57;;;;;;;;;;5071291;28;20467;-68
2024/01/28 11:15:13;;;;;;;16.60;5.60;;;;;;;;;;5071194;28;20476;-68
2024/01/28 11:17:39;;;;;;;16.23;6.00;;;;;;;;;;5071710;28;20104;-68
2024/01/28 11:20:09;;;;;;;17.88;6.13;;;;;;;;;;5071431;28;20081;-68
2024/01/28 11:22:50;;;;;;;22.48;6.90;;;;;;;;;;5071493;28;20028;-68
2024/01/28 11:25:20;;;;;;;13.57;4.95;;;;;;;;;;5071510;28;20035;-68
2024/01/28 11:27:49;;;;;;;;;;;;;;;;;;5075675;28;20561;-68
2024/01/28 11:30:19;;;;;;;13.60;5.13;;;;;;;;;;5074945;28;19967;-68
2024/01/28 11:32:45;;;;;;;14.88;5.43;;;;;;;;;;5075121;28;20513;-69
2024/01/28 11:35:11;;;;;;;20.10;5.30;;;;;;;;;;5074903;28;20548;-68
2024/01/28 11:37:57;;;;;;;13.10;6.18;;;;;;;;;;5075077;28;20104;-68
2024/01/28 11:40:32;;;;;;;16.10;5.93;;;;;;;;;;5074926;28;20491;-68
2024/01/28 11:42:58;;;;;;;16.48;5.03;;;;;;;;;;5074692;28;20033;-67
2024/01/28 11:45:26;;;;;;;17.92;6.15;;;;;;;;;;5074056;28;20029;-68
2024/01/28 11:47:52;;;;;;;18.10;6.22;;;;;;;;;;5074773;28;20083;-68
2024/01/28 11:50:17;;;;;;;18.02;5.60;;;;;;;;;;5074626;28;20056;-68
2024/01/28 11:52:43;;;;;;;11.90;4.90;;;;;;;;;;5074670;28;20032;-68
2024/01/28 11:55:17;;;;;;;22.35;5.75;;;;;;;;;;5074295;28;20044;-68
2024/01/28 11:57:45;;;;;;;23.38;5.80;;;;;;;;;;5074672;28;20016;-68
2024/01/28 12:00:11;;;;;;;18.40;5.38;;;;;;;;;;5056263;28;20025;-68
2024/01/28 12:02:38;;;;;;;19.33;5.75;;;;;;;;;;5074502;28;20150;-68
2024/01/28 12:05:05;;;;;;;15.95;4.40;;;;;;;;;;5074173;28;20020;-68
2024/01/28 12:07:33;;;;;;;16.60;4.72;;;;;;;;;;5056334;28;20063;-68
2024/01/28 12:10:00;;;;;;;15.35;5.30;;;;;;;;;;5074237;28;20024;-68
2024/01/28 12:12:25;;;;;;;18.15;5.50;;;;;;;;;;5073940;28;20383;-68
2024/01/28 12:14:51;;;;;;;15.20;4.93;;;;;;;;;;5074261;28;20025;-68
2024/01/28 12:17:16;;;;;;;13.88;4.80;;;;;;;;;;5074310;28;20024;-68
2024/01/28 12:19:42;;;;;;;18.92;4.80;;;;;;;;;;5074121;28;20030;-68
2024/01/28 12:22:11;;;;;;;17.70;4.90;;;;;;;;;;5074047;28;20447;-68
2024/01/28 12:24:37;;;;;;;19.08;5.45;;;;;;;;;;5073886;28;20031;-68
2024/01/28 12:27:04;;;;;;;16.45;4.50;;;;;;;;;;5073877;28;20020;-68
2024/01/28 12:29:30;;;;;;;18.80;5.25;;;;;;;;;;5074159;28;20028;-68
2024/01/28 12:31:56;;;;;;;16.52;4.97;;;;;;;;;;5073647;28;20165;-68
2024/01/28 12:34:25;;;;;;;20.63;5.43;;;;;;;;;;5073906;28;20020;-69
2024/01/28 12:36:51;;;;;;;25.60;5.50;;;;;;;;;;5073466;28;20564;-68
2024/01/28 12:39:16;;;;;;;16.25;4.28;;;;;;;;;;5072971;28;20032;-67
2024/01/28 12:41:42;;;;;;;15.77;4.75;;;;;;;;;;5073633;28;20017;-69
2024/01/28 12:44:07;;;;;;;17.88;4.88;;;;;;;;;;5073556;28;20036;-68
2024/01/28 12:46:33;;;;;;;12.68;4.28;;;;;;;;;;5055669;28;20092;-68
2024/01/28 12:48:59;;;;;;;11.45;4.00;;;;;;;;;;5073677;28;20471;-68
2024/01/28 12:51:25;;;;;;;17.20;3.95;;;;;;;;;;5089193;28;20035;-68
2024/01/28 12:53:51;;;;;;;15.77;4.43;;;;;;;;;;5055425;28;20041;-68
2024/01/28 12:56:17;;;;;;;18.67;4.88;;;;;;;;;;5073276;28;20032;-69
2024/01/28 12:58:43;;;;;;;20.58;4.55;;;;;;;;;;5073466;28;20067;-68
2024/01/28 13:01:09;;;;;;;13.50;4.22;;;;;;;;;;5073371;28;20025;-68
2024/01/28 13:03:36;;;;;;;21.13;4.95;;;;;;;;;;5073460;28;20055;-69
2024/01/28 13:06:02;;;;;;;22.20;4.28;;;;;;;;;;5073151;28;20458;-68
2024/01/28 13:08:27;;;;;;;15.98;4.20;;;;;;;;;;5073271;28;20063;-68
2024/01/28 13:10:54;;;;;;;15.68;3.65;;;;;;;;;;5073126;28;20028;-69
2024/01/28 13:13:20;;;;;;;14.32;3.70;;;;;;;;;;5072873;28;20103;-68
2024/01/28 13:15:46;;;;;;;14.60;3.95;;;;;;;;;;5073023;28;20427;-68
2024/01/28 13:18:11;;;;;;;16.27;4.43;;;;;;;;;;5072996;28;20402;-69
2024/01/28 13:20:36;;;;;;;10.13;2.90;;;;;;;;;;5073065;28;20021;-68
2024/01/28 13:23:02;;;;;;;10.48;2.70;;;;;;;;;;5073069;28;20035;-69
2024/01/28 13:25:27;;;;;;;12.13;3.30;;;;;;;;;;5072605;28;20035;-68
2024/01/28 13:27:53;;;;;;;14.60;3.50;;;;;;;;;;5072979;28;20021;-69
2024/01/28 13:30:19;;;;;;;16.60;4.15;;;;;;;;;;5072945;28;20024;-69
2024/01/28 13:32:46;;;;;;;15.90;3.58;;;;;;;;;;5054742;28;20059;-69
2024/01/28 13:35:12;;;;;;;19.23;3.92;;;;;;;;;;5072747;28;20031;-69
2024/01/28 13:37:40;;;;;;;12.60;3.15;;;;;;;;;;5072812;28;20025;-68
2024/01/28 13:40:06;;;;;;;15.88;3.25;;;;;;;;;;5072526;28;20029;-69
2024/01/28 13:42:31;;;;;;;12.25;3.35;;;;;;;;;;5072616;28;20025;-69
2024/01/28 13:44:58;;;;;;;13.93;3.15;;;;;;;;;;5072375;28;20032;-68
2024/01/28 13:47:24;;;;;;;11.88;3.28;;;;;;;;;;5054552;28;20383;-69
2024/01/28 13:49:50;;;;;;;15.48;4.53;;;;;;;;;;5072462;28;20020;-68
2024/01/28 13:52:16;;;;;;;11.80;3.38;;;;;;;;;;5072567;28;20372;-68
2024/01/28 13:54:41;;;;;;;12.13;4.43;;;;;;;;;;5072084;28;20456;-69
2024/01/28 13:57:07;;;;;;;12.63;2.83;;;;;;;;;;5072364;28;20438;-69
2024/01/28 13:59:33;;;;;;;14.60;5.22;;;;;;;;;;5072450;28;20032;-69
2024/01/28 14:02:00;;;;;;;12.50;2.30;;;;;;;;;;5072365;28;20028;-69
2024/01/28 14:04:26;;;;;;;12.10;2.88;;;;;;;;;;5054556;28;20421;-69
2024/01/28 14:06:51;;;;;;;10.88;2.95;;;;;;;;;;5072281;28;20035;-69
2024/01/28 14:09:17;;;;;;;10.90;3.03;;;;;;;;;;5071928;28;20029;-69
2024/01/28 14:11:42;;;;;;;15.45;3.13;;;;;;;;;;5072189;28;20440;-69
2024/01/28 14:14:08;;;;;;;10.25;2.90;;;;;;;;;;5072293;28;20033;-69
2024/01/28 14:16:33;;;;;;;10.25;2.90;;;;;;;;;;5072144;28;20379;-69
2024/01/28 14:18:59;;;;;;;9.82;3.00;;;;;;;;;;5072252;28;20529;-69
2024/01/28 14:21:28;;;;;;;10.77;2.65;;;;;;;;;;5072166;28;20036;-69
2024/01/28 14:23:54;;;;;;;9.20;2.60;;;;;;;;;;5071773;28;20321;-69